createdAt,value
2022-12-15T00:02:15.482Z,-4.22
2022-12-15T00:05:00.830Z,-4.29
2022-12-15T00:07:46.203Z,-4.24
2022-12-15T00:10:31.317Z,-4.21
2022-12-15T00:13:16.601Z,-4.13
2022-12-15T00:16:01.599Z,-4.15
2022-12-15T00:18:46.829Z,-4.24
2022-12-15T00:21:32.040Z,-4.26
2022-12-15T00:24:16.939Z,-4.40
2022-12-15T00:27:02.240Z,-4.27
2022-12-15T00:29:47.219Z,-4.34
2022-12-15T00:32:32.453Z,-4.46
2022-12-15T00:35:17.205Z,-4.38
2022-12-15T00:38:02.194Z,-4.38
2022-12-15T00:40:28.749Z,-4.38
2022-12-15T00:42:55.430Z,-4.43
2022-12-15T00:45:41.946Z,-4.43
2022-12-15T00:48:08.522Z,-4.38
2022-12-15T00:50:53.356Z,-4.39
2022-12-15T00:53:40.026Z,-4.37
2022-12-15T00:56:26.137Z,-4.40
2022-12-15T00:59:11.932Z,-4.53
2022-12-15T01:01:57.475Z,-4.56
2022-12-15T01:04:42.643Z,-4.62
2022-12-15T01:07:27.794Z,-4.73
2022-12-15T01:10:12.782Z,-4.78
2022-12-15T01:12:58.160Z,-4.76
2022-12-15T01:15:43.483Z,-4.74
2022-12-15T01:18:28.662Z,-4.81
2022-12-15T01:21:08.323Z,-4.73
2022-12-15T01:23:35.462Z,-4.78
2022-12-15T01:26:02.190Z,-4.96
2022-12-15T01:28:28.839Z,-4.93
2022-12-15T01:30:55.590Z,-4.85
2022-12-15T01:33:22.557Z,-4.77
2022-12-15T01:36:07.306Z,-5.09
2022-12-15T01:38:33.899Z,-4.92
2022-12-15T01:41:10.891Z,-4.84
2022-12-15T01:43:39.542Z,-4.81
2022-12-15T01:46:13.129Z,-4.78
2022-12-15T01:48:57.889Z,-4.86
2022-12-15T01:51:32.786Z,-4.81
2022-12-15T01:54:04.091Z,-4.86
2022-12-15T01:56:37.762Z,-5.01
2022-12-15T01:59:07.290Z,-5.05
2022-12-15T02:01:34.101Z,-5.03
2022-12-15T02:04:00.983Z,-5.10
2022-12-15T02:06:28.314Z,-5.08
2022-12-15T02:08:57.706Z,-4.99
2022-12-15T02:11:31.572Z,-4.91
2022-12-15T02:14:04.065Z,-4.98
2022-12-15T02:16:53.618Z,-4.69
2022-12-15T02:19:47.991Z,-4.67
2022-12-15T02:22:53.672Z,-4.70
2022-12-15T02:25:32.406Z,-4.71
2022-12-15T02:28:07.053Z,-4.59
2022-12-15T02:31:11.944Z,-4.54
2022-12-15T02:33:46.442Z,-4.47
2022-12-15T02:36:32.586Z,-4.42
2022-12-15T02:38:59.226Z,-4.59
2022-12-15T02:41:46.188Z,-4.61
2022-12-15T02:44:29.399Z,-4.51
2022-12-15T02:47:27.885Z,-4.26
2022-12-15T02:50:06.359Z,-4.57
2022-12-15T02:52:55.307Z,-4.49
2022-12-15T02:56:00.661Z,-4.45
2022-12-15T02:58:51.389Z,-4.37
2022-12-15T03:01:25.768Z,-4.38
2022-12-15T03:03:52.950Z,-4.43
2022-12-15T03:06:20.016Z,-4.22
2022-12-15T03:08:46.831Z,-4.23
2022-12-15T03:11:13.436Z,-4.16
2022-12-15T03:13:40.093Z,-4.10
2022-12-15T03:16:06.914Z,-4.11
2022-12-15T03:18:33.597Z,-4.09
2022-12-15T03:21:00.318Z,-4.02
2022-12-15T03:23:27.041Z,-3.92
2022-12-15T03:25:53.776Z,-3.85
2022-12-15T03:28:20.526Z,-3.81
2022-12-15T03:30:50.221Z,-3.77
2022-12-15T03:33:18.053Z,-3.41
2022-12-15T03:35:44.804Z,-3.49
2022-12-15T03:38:11.453Z,-3.73
2022-12-15T03:40:38.133Z,-3.78
2022-12-15T03:43:04.811Z,-3.83
2022-12-15T03:45:31.563Z,-3.84
2022-12-15T03:47:58.399Z,-3.84
2022-12-15T03:50:27.505Z,-3.79
2022-12-15T03:52:56.963Z,-3.80
2022-12-15T03:55:24.311Z,-3.69
2022-12-15T03:57:51.775Z,-3.72
2022-12-15T04:00:20.050Z,-3.66
2022-12-15T04:02:50.212Z,-3.62
2022-12-15T04:05:31.891Z,-3.54
2022-12-15T04:07:59.867Z,-3.50
2022-12-15T04:10:33.655Z,-3.40
2022-12-15T04:13:05.726Z,-3.42
2022-12-15T04:15:32.951Z,-3.60
2022-12-15T04:18:02.018Z,-3.34
2022-12-15T04:20:29.438Z,-3.46
2022-12-15T04:22:56.268Z,-3.45
2022-12-15T04:25:42.995Z,-3.80
2022-12-15T04:28:29.984Z,-3.89
2022-12-15T04:31:22.729Z,-3.92
2022-12-15T04:34:10.541Z,-3.95
2022-12-15T04:36:57.162Z,-3.91
2022-12-15T04:39:42.647Z,-3.77
2022-12-15T04:42:28.247Z,-3.76
2022-12-15T04:45:20.526Z,-3.76
2022-12-15T04:48:06.558Z,-3.78
2022-12-15T04:50:52.016Z,-3.77
2022-12-15T04:53:38.044Z,-3.76
2022-12-15T04:56:23.480Z,-3.85
2022-12-15T04:59:09.049Z,-3.84
2022-12-15T05:01:54.604Z,-3.86
2022-12-15T05:04:42.676Z,-3.76
2022-12-15T05:07:28.487Z,-3.78
2022-12-15T05:10:15.361Z,-3.83
2022-12-15T05:13:01.725Z,-3.91
2022-12-15T05:15:47.474Z,-4.02
2022-12-15T05:18:32.932Z,-3.80
2022-12-15T05:21:18.248Z,-3.89
2022-12-15T05:24:03.094Z,-3.73
2022-12-15T05:26:52.715Z,-3.67
2022-12-15T05:29:38.324Z,-3.69
2022-12-15T05:32:05.296Z,-3.62
2022-12-15T05:34:33.663Z,-3.60
2022-12-15T05:37:02.124Z,-3.59
2022-12-15T05:39:28.955Z,-3.59
2022-12-15T05:41:56.689Z,-3.62
2022-12-15T05:44:24.461Z,-3.53
2022-12-15T05:46:51.095Z,-3.68
2022-12-15T05:49:18.595Z,-3.75
2022-12-15T05:51:47.350Z,-3.69
2022-12-15T05:54:16.713Z,-3.72
2022-12-15T05:56:43.948Z,-3.75
2022-12-15T05:59:10.749Z,-3.61
2022-12-15T06:01:37.389Z,-3.61
2022-12-15T06:04:04.373Z,-3.55
2022-12-15T06:06:31.367Z,-3.53
2022-12-15T06:08:58.254Z,-3.51
2022-12-15T06:11:25.335Z,-3.68
2022-12-15T06:13:52.911Z,-3.63
2022-12-15T06:16:21.206Z,-3.61
2022-12-15T06:18:50.887Z,-3.73
2022-12-15T06:21:19.940Z,-3.68
2022-12-15T06:23:47.324Z,-3.68
2022-12-15T06:26:29.133Z,-3.65
2022-12-15T06:28:58.100Z,-3.59
2022-12-15T06:31:26.568Z,-3.57
2022-12-15T06:34:01.057Z,-3.54
2022-12-15T06:36:28.737Z,-3.50
2022-12-15T06:39:01.787Z,-3.51
2022-12-15T06:41:30.551Z,-3.49
2022-12-15T06:43:58.087Z,-3.32
2022-12-15T06:46:26.206Z,-3.48
2022-12-15T06:48:53.329Z,-3.54
2022-12-15T06:51:20.735Z,-3.39
2022-12-15T06:53:52.665Z,-3.35
2022-12-15T06:56:25.683Z,-3.25
2022-12-15T06:58:55.564Z,-3.32
2022-12-15T07:01:24.497Z,-3.32
2022-12-15T07:03:52.916Z,-3.26
2022-12-15T07:06:20.419Z,-3.30
2022-12-15T07:08:54.449Z,-3.28
2022-12-15T07:11:22.168Z,-3.23
2022-12-15T07:13:53.065Z,-3.20
2022-12-15T07:16:21.620Z,-3.26
2022-12-15T07:18:48.411Z,-3.11
2022-12-15T07:21:15.406Z,-3.13
2022-12-15T07:23:58.338Z,-2.89
2022-12-15T07:26:26.018Z,-1.83
2022-12-15T07:28:53.934Z,-0.16
2022-12-15T07:31:21.366Z,0.12
2022-12-15T07:33:48.629Z,-0.77
2022-12-15T07:36:15.696Z,-1.09
2022-12-15T07:38:42.666Z,-1.52
2022-12-15T07:41:10.135Z,-1.99
2022-12-15T07:43:37.669Z,-2.07
2022-12-15T07:46:05.827Z,-0.82
2022-12-15T07:48:33.324Z,1.39
2022-12-15T07:51:11.048Z,3.29
2022-12-15T07:53:42.128Z,5.05
2022-12-15T07:56:09.977Z,5.55
2022-12-15T07:58:37.488Z,7.05
2022-12-15T08:01:09.087Z,6.07
2022-12-15T08:03:37.155Z,5.10
2022-12-15T08:06:10.256Z,5.17
2022-12-15T08:08:37.355Z,8.53
2022-12-15T08:11:14.575Z,6.69
2022-12-15T08:16:29.344Z,4.94
2022-12-15T08:18:57.381Z,3.81
2022-12-15T08:21:24.209Z,2.69
2022-12-15T08:23:51.037Z,1.99
2022-12-15T08:26:18.916Z,2.43
2022-12-15T08:28:46.093Z,2.59
2022-12-15T08:31:17.878Z,2.40
2022-12-15T08:33:45.716Z,2.54
2022-12-15T08:36:14.317Z,2.34
2022-12-15T08:38:41.878Z,2.69
2022-12-15T08:41:10.968Z,2.86
2022-12-15T08:43:42.565Z,2.71
2022-12-15T08:46:14.446Z,2.77
2022-12-15T08:48:41.211Z,3.25
2022-12-15T08:51:08.259Z,2.90
2022-12-15T08:53:35.036Z,3.24
2022-12-15T08:56:06.353Z,3.13
2022-12-15T08:58:33.615Z,2.91
2022-12-15T09:01:06.418Z,2.72
2022-12-15T09:03:34.916Z,3.15
2022-12-15T09:06:06.906Z,2.91
2022-12-15T09:08:34.228Z,2.54
2022-12-15T09:11:01.936Z,2.74
2022-12-15T09:13:29.295Z,2.69
2022-12-15T09:16:10.472Z,3.16
2022-12-15T09:18:37.973Z,3.34
2022-12-15T09:21:06.404Z,2.72
2022-12-15T09:23:34.402Z,2.74
2022-12-15T09:26:03.029Z,2.71
2022-12-15T09:28:30.219Z,2.70
2022-12-15T09:31:08.782Z,2.60
2022-12-15T09:33:36.367Z,3.00
2022-12-15T09:36:04.100Z,3.30
2022-12-15T09:38:31.319Z,2.94
2022-12-15T09:40:58.043Z,2.73
2022-12-15T09:43:35.418Z,2.06
2022-12-15T09:46:08.453Z,2.44
2022-12-15T09:48:40.088Z,2.56
2022-12-15T09:51:09.279Z,2.42
2022-12-15T09:56:33.339Z,3.05
2022-12-15T09:59:13.838Z,3.19
2022-12-15T10:02:12.560Z,3.18
2022-12-15T10:05:06.338Z,3.41
2022-12-15T10:07:37.594Z,3.38
2022-12-15T10:10:21.293Z,3.29
2022-12-15T10:15:50.946Z,3.47
2022-12-15T10:18:23.117Z,3.46
2022-12-15T10:20:53.309Z,3.17
2022-12-15T10:23:20.232Z,2.40
2022-12-15T10:25:51.310Z,3.04
2022-12-15T10:28:33.531Z,2.83
2022-12-15T10:31:02.530Z,3.25
2022-12-15T10:33:47.111Z,3.37
2022-12-15T10:36:16.555Z,3.35
2022-12-15T10:38:50.252Z,3.29
2022-12-15T10:41:26.728Z,3.28
2022-12-15T10:43:54.681Z,2.90
2022-12-15T10:46:29.599Z,2.56
2022-12-15T10:49:01.854Z,2.91
2022-12-15T10:51:33.542Z,3.12
2022-12-15T10:54:15.527Z,3.41
2022-12-15T10:56:54.576Z,3.07
2022-12-15T10:59:38.575Z,3.28
2022-12-15T11:02:29.686Z,2.69
2022-12-15T11:05:15.605Z,3.45
2022-12-15T11:07:46.618Z,3.87
2022-12-15T11:10:22.387Z,3.11
2022-12-15T11:13:14.089Z,3.17
2022-12-15T11:15:43.877Z,3.12
2022-12-15T11:18:42.626Z,3.57
2022-12-15T11:21:17.270Z,4.26
2022-12-15T11:24:09.027Z,3.54
2022-12-15T11:26:55.728Z,3.42
2022-12-15T11:29:34.444Z,3.34
2022-12-15T11:32:06.703Z,2.91
2022-12-15T11:34:39.420Z,2.48
2022-12-15T11:37:24.259Z,2.53
2022-12-15T11:40:15.624Z,2.28
2022-12-15T11:43:04.888Z,2.70
2022-12-15T11:46:13.407Z,3.19
2022-12-15T11:48:53.947Z,3.70
2022-12-15T11:51:26.239Z,3.70
2022-12-15T11:54:40.838Z,3.18
2022-12-15T11:57:35.532Z,3.37
2022-12-15T12:00:06.219Z,3.52
2022-12-15T12:02:56.333Z,3.55
2022-12-15T12:05:41.783Z,3.62
2022-12-15T12:08:45.441Z,3.61
2022-12-15T12:11:15.712Z,3.46
2022-12-15T12:13:53.289Z,3.31
2022-12-15T12:17:09.084Z,3.11
2022-12-15T12:19:42.525Z,2.80
2022-12-15T12:22:22.028Z,2.81
2022-12-15T12:25:12.281Z,2.55
2022-12-15T12:27:41.748Z,2.41
2022-12-15T12:30:17.272Z,2.52
2022-12-15T12:32:54.751Z,2.52
2022-12-15T12:35:40.203Z,2.53
2022-12-15T12:38:10.325Z,2.74
2022-12-15T12:40:52.908Z,2.74
2022-12-15T12:43:33.606Z,2.69
2022-12-15T12:46:06.909Z,2.82
2022-12-15T12:48:37.993Z,2.77
2022-12-15T12:51:32.072Z,2.50
2022-12-15T12:53:59.976Z,2.31
2022-12-15T12:56:34.116Z,2.44
2022-12-15T12:59:00.972Z,2.52
2022-12-15T13:01:32.252Z,2.50
2022-12-15T13:04:12.087Z,2.42
2022-12-15T13:06:38.609Z,2.42
2022-12-15T13:09:17.468Z,2.28
2022-12-15T13:11:52.900Z,2.49
2022-12-15T13:14:30.838Z,2.42
2022-12-15T13:17:28.956Z,2.26
2022-12-15T13:19:59.075Z,2.08
2022-12-15T13:22:43.687Z,2.01
2022-12-15T13:25:51.766Z,2.22
2022-12-15T13:28:40.190Z,2.36
2022-12-15T13:31:19.347Z,2.39
2022-12-15T13:33:55.747Z,2.41
2022-12-15T13:36:37.971Z,2.43
2022-12-15T13:39:27.558Z,2.43
2022-12-15T13:44:51.834Z,2.28
2022-12-15T13:47:29.294Z,2.34
2022-12-15T13:50:06.097Z,2.36
2022-12-15T13:53:17.346Z,2.21
2022-12-15T13:55:37.258Z,2.20
2022-12-15T13:58:12.386Z,2.16
2022-12-15T14:00:39.667Z,2.16
2022-12-15T14:03:10.595Z,2.03
2022-12-15T14:05:39.222Z,2.00
2022-12-15T14:08:16.160Z,2.21
2022-12-15T14:10:49.140Z,2.14
2022-12-15T14:13:26.217Z,2.28
2022-12-15T14:15:56.709Z,1.65
2022-12-15T14:18:33.187Z,1.53
2022-12-15T14:21:00.978Z,1.45
2022-12-15T14:23:40.548Z,1.41
2022-12-15T14:26:11.398Z,1.44
2022-12-15T14:28:40.921Z,1.31
2022-12-15T14:31:13.305Z,1.37
2022-12-15T14:33:44.684Z,1.16
2022-12-15T14:36:18.246Z,1.29
2022-12-15T14:38:54.698Z,1.31
2022-12-15T14:41:45.222Z,1.30
2022-12-15T14:44:38.266Z,1.19
2022-12-15T14:47:18.124Z,1.31
2022-12-15T14:49:45.579Z,1.40
2022-12-15T14:52:42.308Z,1.43
2022-12-15T14:55:21.476Z,1.60
2022-12-15T14:57:48.447Z,1.41
2022-12-15T15:00:35.988Z,1.24
2022-12-15T15:03:06.438Z,3.93
2022-12-15T15:03:36.966Z,1.23
2022-12-15T15:06:05.040Z,1.12
2022-12-15T15:08:34.018Z,1.16
2022-12-15T15:11:05.286Z,1.00
2022-12-15T15:13:40.363Z,0.88
2022-12-15T15:16:08.698Z,0.92
2022-12-15T15:18:35.590Z,0.94
2022-12-15T15:21:07.098Z,0.96
2022-12-15T15:23:34.258Z,1.08
2022-12-15T15:26:10.764Z,0.92
2022-12-15T15:28:39.946Z,0.92
2022-12-15T15:31:25.215Z,1.00
2022-12-15T15:33:52.893Z,1.08
2022-12-15T15:36:19.816Z,1.11
2022-12-15T15:38:46.937Z,1.04
2022-12-15T15:41:20.527Z,0.86
2022-12-15T15:43:47.658Z,0.74
2022-12-15T15:46:23.250Z,0.60
2022-12-15T15:48:54.428Z,0.64
2022-12-15T15:51:21.539Z,0.97
2022-12-15T15:53:48.370Z,0.55
2022-12-15T15:56:16.789Z,0.65
2022-12-15T15:58:43.972Z,0.75
2022-12-15T16:01:13.371Z,0.94
2022-12-15T16:03:41.266Z,0.64
2022-12-15T16:06:17.236Z,0.59
2022-12-15T16:08:44.390Z,0.57
2022-12-15T16:11:14.218Z,0.37
2022-12-15T16:13:40.898Z,0.44
2022-12-15T16:16:17.051Z,0.37
2022-12-15T16:18:43.815Z,0.34
2022-12-15T16:21:14.179Z,0.31
2022-12-15T16:23:42.039Z,0.24
2022-12-15T16:26:15.376Z,0.42
2022-12-15T16:28:42.397Z,0.37
2022-12-15T16:31:15.463Z,0.31
2022-12-15T16:33:42.460Z,0.38
2022-12-15T16:36:13.692Z,0.34
2022-12-15T16:38:41.239Z,0.36
2022-12-15T16:41:12.860Z,0.38
2022-12-15T16:43:44.509Z,0.26
2022-12-15T16:46:15.625Z,0.40
2022-12-15T16:48:42.886Z,0.33
2022-12-15T16:51:16.223Z,0.19
2022-12-15T16:53:43.485Z,-0.09
2022-12-15T16:56:14.364Z,0.06
2022-12-15T16:58:41.388Z,0.17
2022-12-15T17:01:10.498Z,0.27
2022-12-15T17:03:37.382Z,0.16
2022-12-15T17:06:06.776Z,0.16
2022-12-15T17:08:49.057Z,0.15
2022-12-15T17:11:19.615Z,0.13
2022-12-15T17:13:48.141Z,-0.03
2022-12-15T17:16:15.107Z,-0.04
2022-12-15T17:18:42.944Z,0.10
2022-12-15T17:21:19.265Z,0.16
2022-12-15T17:23:48.808Z,0.28
2022-12-15T17:26:29.305Z,0.21
2022-12-15T17:28:59.894Z,0.17
2022-12-15T17:31:32.927Z,0.14
2022-12-15T17:34:02.400Z,0.20
2022-12-15T17:36:29.352Z,0.22
2022-12-15T17:38:59.769Z,0.25
2022-12-15T17:41:59.216Z,0.34
2022-12-15T17:44:33.113Z,0.33
2022-12-15T17:47:01.122Z,0.25
2022-12-15T17:49:34.727Z,0.28
2022-12-15T17:52:03.719Z,0.17
2022-12-15T17:54:30.311Z,0.15
2022-12-15T17:56:57.109Z,0.24
2022-12-15T17:59:23.791Z,0.23
2022-12-15T18:01:50.657Z,0.31
2022-12-15T18:04:17.444Z,0.16
2022-12-15T18:06:44.476Z,0.21
2022-12-15T18:09:16.382Z,0.20
2022-12-15T18:11:45.286Z,0.18
2022-12-15T18:14:17.450Z,0.27
2022-12-15T18:16:44.742Z,0.25
2022-12-15T18:19:11.747Z,0.32
2022-12-15T18:21:38.416Z,0.38
2022-12-15T18:24:13.142Z,0.27
2022-12-15T18:26:39.917Z,0.28
2022-12-15T18:29:14.341Z,0.31
2022-12-15T18:31:41.973Z,0.26
2022-12-15T18:34:13.425Z,0.36
2022-12-15T18:36:40.337Z,0.36
2022-12-15T18:39:23.336Z,0.26
2022-12-15T18:41:50.844Z,0.19
2022-12-15T18:44:28.697Z,0.16
2022-12-15T18:46:55.596Z,0.28
2022-12-15T18:49:23.461Z,0.22
2022-12-15T18:51:50.504Z,0.20
2022-12-15T18:54:19.988Z,0.18
2022-12-15T18:56:46.706Z,0.33
2022-12-15T18:59:15.791Z,0.37
2022-12-15T19:01:44.121Z,0.22
2022-12-15T19:04:12.275Z,0.15
2022-12-15T19:06:40.525Z,0.17
2022-12-15T19:09:21.766Z,0.10
2022-12-15T19:12:08.220Z,0.11
2022-12-15T19:14:43.118Z,0.13
2022-12-15T19:17:37.168Z,0.09
2022-12-15T19:20:25.932Z,0.07
2022-12-15T19:22:52.916Z,-0.06
2022-12-15T19:25:25.557Z,0.07
2022-12-15T19:27:59.413Z,-0.05
2022-12-15T19:30:28.944Z,-0.03
2022-12-15T19:32:55.823Z,-0.13
2022-12-15T19:35:22.520Z,-0.24
2022-12-15T19:37:50.022Z,-0.23
2022-12-15T19:40:22.250Z,-0.08
2022-12-15T19:42:49.321Z,0.00
2022-12-15T19:45:27.751Z,0.12
2022-12-15T19:47:55.183Z,0.17
2022-12-15T19:50:24.500Z,0.17
2022-12-15T19:52:54.827Z,0.12
2022-12-15T19:55:25.991Z,0.01
2022-12-15T19:57:52.751Z,0.08
2022-12-15T20:00:22.030Z,0.07
2022-12-15T20:02:51.451Z,0.06
2022-12-15T20:05:19.615Z,0.12
2022-12-15T20:07:48.094Z,0.17
2022-12-15T20:10:25.964Z,0.29
2022-12-15T20:12:53.196Z,0.33
2022-12-15T20:15:22.761Z,0.18
2022-12-15T20:17:50.763Z,0.21
2022-12-15T20:20:19.445Z,0.18
2022-12-15T20:22:48.128Z,0.13
2022-12-15T20:25:16.938Z,-0.04
2022-12-15T20:27:43.887Z,-0.08
2022-12-15T20:30:25.329Z,0.05
2022-12-15T20:32:52.575Z,-0.10
2022-12-15T20:35:21.360Z,-0.03
2022-12-15T20:37:48.610Z,-0.05
2022-12-15T20:40:18.409Z,-0.01
2022-12-15T20:42:45.259Z,0.02
2022-12-15T20:45:21.303Z,0.04
2022-12-15T20:47:49.280Z,0.08
2022-12-15T20:50:28.970Z,0.11
2022-12-15T20:52:55.591Z,0.05
2022-12-15T20:55:22.389Z,-0.07
2022-12-15T20:57:49.518Z,0.03
2022-12-15T21:00:18.276Z,0.07
2022-12-15T21:02:46.100Z,0.10
2022-12-15T21:05:21.610Z,0.09
2022-12-15T21:07:48.535Z,0.12
2022-12-15T21:10:17.065Z,0.10
2022-12-15T21:12:45.963Z,0.18
2022-12-15T21:15:23.318Z,0.27
2022-12-15T21:18:11.015Z,0.33
2022-12-15T21:20:41.151Z,0.47
2022-12-15T21:23:19.734Z,0.74
2022-12-15T21:25:47.331Z,0.75
2022-12-15T21:28:14.524Z,0.38
2022-12-15T21:30:42.216Z,0.23
2022-12-15T21:33:08.981Z,0.21
2022-12-15T21:35:36.252Z,0.16
2022-12-15T21:38:03.701Z,0.05
2022-12-15T21:40:30.323Z,-0.12
2022-12-15T21:42:57.196Z,-0.16
2022-12-15T21:45:25.441Z,-0.08
2022-12-15T21:48:12.664Z,-0.08
2022-12-15T21:50:39.664Z,-0.14
2022-12-15T21:53:06.642Z,0.02
2022-12-15T21:55:33.289Z,0.41
2022-12-15T21:57:59.932Z,0.66
2022-12-15T22:00:26.669Z,0.37
2022-12-15T22:02:53.791Z,0.28
2022-12-15T22:05:32.525Z,0.15
2022-12-15T22:08:05.449Z,0.04
2022-12-15T22:10:32.034Z,0.06
2022-12-15T22:12:59.896Z,0.09
2022-12-15T22:15:26.712Z,0.05
2022-12-15T22:17:53.313Z,0.04
2022-12-15T22:20:22.383Z,0.08
2022-12-15T22:22:49.296Z,-0.16
2022-12-15T22:25:23.016Z,-0.08
2022-12-15T22:27:50.137Z,-0.08
2022-12-15T22:30:24.440Z,-0.16
2022-12-15T22:32:51.334Z,-0.17
2022-12-15T22:35:20.422Z,0.05
2022-12-15T22:37:49.580Z,-0.10
2022-12-15T22:40:17.546Z,-0.17
2022-12-15T22:42:46.914Z,-0.15
2022-12-15T22:45:16.241Z,-0.09
2022-12-15T22:47:43.576Z,-0.14
2022-12-15T22:50:19.780Z,-0.18
2022-12-15T22:52:46.965Z,-0.15
2022-12-15T22:55:15.587Z,-0.18
2022-12-15T22:57:47.562Z,-0.25
2022-12-15T23:00:14.725Z,-0.25
2022-12-15T23:02:43.668Z,-0.23
2022-12-15T23:05:12.804Z,-0.24
2022-12-15T23:07:39.364Z,-0.44
2022-12-15T23:10:25.110Z,-0.45
2022-12-15T23:12:54.485Z,-0.33
2022-12-15T23:15:41.516Z,-0.18
2022-12-15T23:18:08.652Z,-0.09
2022-12-15T23:20:35.328Z,-0.03
2022-12-15T23:23:02.000Z,-0.25
2022-12-15T23:25:28.740Z,-0.30
2022-12-15T23:27:55.679Z,-0.32
2022-12-15T23:30:22.350Z,-0.29
2022-12-15T23:32:49.001Z,-0.25
2022-12-15T23:35:16.016Z,-0.27
2022-12-15T23:37:42.535Z,-0.21
2022-12-15T23:40:09.672Z,-0.37
2022-12-15T23:42:36.311Z,-0.40
2022-12-15T23:45:02.998Z,-0.42
2022-12-15T23:47:29.812Z,-0.41
2022-12-15T23:49:56.375Z,-0.43
2022-12-15T23:52:23.072Z,-0.26
2022-12-15T23:54:49.655Z,-0.12
2022-12-15T23:57:17.380Z,-0.29
2022-12-15T23:59:43.946Z,-0.34
